Search for airport 
image banner adimage banner adimage banner ad
image banner ad

CL46 - Quail Lake Sky Park

Located in Gorman/Lancaster, United States

ICAO - CL46, IATA -

Data provided by Airmate  

General information

Coordinates: N34°46'4" W118°43'54"
Elevation is 3370 feet MSL.
Magnetic variation is 14° East
View others Airports in California

Operational data

Special qualification required
Current time UTC:
Current local time:
Weather at : KWJF - General Wm J Fox Airfield ( 47 km )
METAR: KWJF 141056Z AUTO 28013KT 10SM CLR 21/10 A2997 RMK AO2 SLP124 T02110100
TAF: KWJF 140522Z 1406/1506 26012KT P6SM SKC FM141900 26017G25KT P6SM SKC
View NOTAMs / SUP AIP / TFR affecting this airport [VIEW]
Communications frequencies: [VIEW]

Runways:

RWY identifierQFULength (ft)Width (ft)SurfaceLDA (ft)
08310040ASPH
26310040ASPH

Airport contact information

Address: Gorman/Lancaster United States

Satellite view of CL46